createdAt,value
2023-01-08T00:01:11.186Z,98445.10
2023-01-08T00:03:38.809Z,98439.99
2023-01-08T00:06:08.907Z,98429.96
2023-01-08T00:08:35.485Z,98430.48
2023-01-08T00:11:01.955Z,98425.91
2023-01-08T00:13:28.599Z,98421.36
2023-01-08T00:15:55.450Z,98426.51
2023-01-08T00:18:22.097Z,98424.84
2023-01-08T00:20:48.864Z,98422.45
2023-01-08T00:23:19.814Z,98418.39
2023-01-08T00:25:47.041Z,98417.00
2023-01-08T00:28:13.468Z,98414.96
2023-01-08T00:30:40.079Z,98416.84
2023-01-08T00:33:06.758Z,98413.27
2023-01-08T00:35:33.303Z,98419.08
2023-01-08T00:37:59.835Z,98417.39
2023-01-08T00:40:26.244Z,98421.48
2023-01-08T00:42:52.717Z,98415.18
2023-01-08T00:45:19.197Z,98412.83
2023-01-08T00:47:45.793Z,98412.66
2023-01-08T00:50:12.219Z,98412.67
2023-01-08T00:52:38.773Z,98410.96
2023-01-08T00:55:06.023Z,98406.70
2023-01-08T00:57:34.499Z,98406.53
2023-01-08T01:00:01.052Z,98405.02
2023-01-08T01:02:27.699Z,98399.74
2023-01-08T01:04:54.291Z,98399.39
2023-01-08T01:07:20.892Z,98398.54
2023-01-08T01:09:47.419Z,98398.56
2023-01-08T01:12:13.948Z,98400.45
2023-01-08T01:14:40.669Z,98400.31
2023-01-08T01:17:07.259Z,98399.82
2023-01-08T01:19:33.792Z,98402.92
2023-01-08T01:22:00.314Z,98397.98
2023-01-08T01:24:26.877Z,98400.53
2023-01-08T01:26:53.922Z,98397.63
2023-01-08T01:29:20.466Z,98393.20
2023-01-08T01:31:47.022Z,98386.89
2023-01-08T01:34:13.717Z,98384.45
2023-01-08T01:36:40.279Z,98383.55
2023-01-08T01:39:08.909Z,98382.86
2023-01-08T01:41:45.135Z,98384.05
2023-01-08T01:44:35.354Z,98381.36
2023-01-08T01:47:13.838Z,98382.73
2023-01-08T01:49:44.025Z,98375.63
2023-01-08T01:52:11.852Z,98374.48
2023-01-08T01:54:38.395Z,98373.65
2023-01-08T01:57:06.900Z,98372.31
2023-01-08T01:59:34.033Z,98370.47
2023-01-08T02:02:01.033Z,98368.77
2023-01-08T02:04:27.761Z,98368.79
2023-01-08T02:06:59.575Z,98369.64
2023-01-08T02:09:47.725Z,98364.71
2023-01-08T02:12:33.017Z,98365.74
2023-01-08T02:14:59.686Z,98361.17
2023-01-08T02:17:49.740Z,98361.20
2023-01-08T02:20:40.135Z,98352.38
2023-01-08T02:23:24.736Z,98348.61
2023-01-08T02:26:09.270Z,98348.27
2023-01-08T02:29:01.807Z,98339.09
2023-01-08T02:31:31.194Z,98341.30
2023-01-08T02:33:57.910Z,98336.04
2023-01-08T02:37:02.905Z,98332.11
2023-01-08T02:39:46.022Z,98323.11
2023-01-08T02:42:23.691Z,98315.98
2023-01-08T02:45:23.611Z,98303.90
2023-01-08T02:47:55.613Z,98300.33
2023-01-08T02:50:32.702Z,98305.10
2023-01-08T02:53:10.841Z,98305.31
2023-01-08T02:55:40.012Z,98302.95
2023-01-08T02:58:08.069Z,98305.35
2023-01-08T03:00:35.672Z,98305.02
2023-01-08T03:03:11.553Z,98295.98
2023-01-08T03:05:41.785Z,98290.19
2023-01-08T03:08:10.236Z,98286.25
2023-01-08T03:10:41.376Z,98286.41
2023-01-08T03:13:21.639Z,98289.32
2023-01-08T03:15:53.446Z,98291.88
2023-01-08T03:18:28.058Z,98289.50
2023-01-08T03:20:55.610Z,98290.19
2023-01-08T03:23:24.302Z,98282.90
2023-01-08T03:25:50.842Z,98276.45
2023-01-08T03:28:31.199Z,98274.57
2023-01-08T03:30:59.226Z,98270.48
2023-01-08T03:33:27.964Z,98268.27
2023-01-08T03:35:57.030Z,98254.83
2023-01-08T03:38:34.767Z,98246.80
2023-01-08T03:41:06.976Z,98249.18
2023-01-08T03:43:33.482Z,98250.89
2023-01-08T03:46:03.654Z,98254.48
2023-01-08T03:48:33.426Z,98257.73
2023-01-08T03:51:00.182Z,98251.08
2023-01-08T03:53:27.708Z,98239.02
2023-01-08T03:55:55.169Z,98233.08
2023-01-08T03:58:21.639Z,98239.38
2023-01-08T04:00:48.017Z,98236.30
2023-01-08T04:03:14.617Z,98244.45
2023-01-08T04:05:41.043Z,98241.21
2023-01-08T04:08:07.468Z,98236.09
2023-01-08T04:10:34.237Z,98227.59
2023-01-08T04:13:00.648Z,98230.98
2023-01-08T04:15:27.244Z,98227.23
2023-01-08T04:17:54.471Z,98230.81
2023-01-08T04:20:21.174Z,98234.58
2023-01-08T04:22:47.647Z,98235.61
2023-01-08T04:25:14.289Z,98235.80
2023-01-08T04:27:40.766Z,98234.61
2023-01-08T04:30:08.010Z,98237.52
2023-01-08T04:32:34.545Z,98238.21
2023-01-08T04:35:01.064Z,98236.34
2023-01-08T04:37:27.573Z,98235.99
2023-01-08T04:39:54.282Z,98231.61
2023-01-08T04:42:20.728Z,98223.98
2023-01-08T04:44:47.202Z,98227.58
2023-01-08T04:47:15.298Z,98229.80
2023-01-08T04:49:41.711Z,98235.58
2023-01-08T04:52:08.264Z,98230.33
2023-01-08T04:54:34.748Z,98232.88
2023-01-08T04:57:01.154Z,98227.29
2023-01-08T04:59:27.594Z,98225.73
2023-01-08T05:01:54.256Z,98226.56
2023-01-08T05:04:20.948Z,98227.76
2023-01-08T05:06:47.435Z,98217.56
2023-01-08T05:09:13.899Z,98219.10
2023-01-08T05:11:40.500Z,98218.75
2023-01-08T05:14:06.974Z,98211.61
2023-01-08T05:16:33.613Z,98210.60
2023-01-08T05:19:00.094Z,98207.40
2023-01-08T05:21:26.565Z,98205.17
2023-01-08T05:23:53.210Z,98208.75
2023-01-08T05:26:19.748Z,98214.19
2023-01-08T05:28:46.591Z,98214.70
2023-01-08T05:31:13.307Z,98213.35
2023-01-08T05:33:40.484Z,98214.75
2023-01-08T05:36:12.501Z,98216.13
2023-01-08T05:38:39.826Z,98212.39
2023-01-08T05:41:07.147Z,98212.38
2023-01-08T05:43:33.845Z,98205.90
2023-01-08T05:46:02.440Z,98203.87
2023-01-08T05:48:30.505Z,98206.42
2023-01-08T05:50:57.046Z,98197.77
2023-01-08T05:53:23.575Z,98200.84
2023-01-08T05:55:50.122Z,98209.33
2023-01-08T05:58:16.869Z,98205.26
2023-01-08T06:00:43.404Z,98203.39
2023-01-08T06:03:10.006Z,98202.87
2023-01-08T06:05:36.723Z,98199.81
2023-01-08T06:08:03.397Z,98197.61
2023-01-08T06:10:29.874Z,98200.34
2023-01-08T06:12:56.365Z,98204.27
2023-01-08T06:15:22.869Z,98197.83
2023-01-08T06:17:49.603Z,98193.39
2023-01-08T06:20:16.242Z,98187.92
2023-01-08T06:22:42.708Z,98193.70
2023-01-08T06:25:09.427Z,98188.97
2023-01-08T06:27:35.855Z,98187.09
2023-01-08T06:30:02.280Z,98184.02
2023-01-08T06:32:28.685Z,98177.04
2023-01-08T06:34:55.181Z,98174.48
2023-01-08T06:37:22.037Z,98175.48
2023-01-08T06:39:48.474Z,98173.10
2023-01-08T06:42:15.157Z,98174.27
2023-01-08T06:44:41.597Z,98180.02
2023-01-08T06:47:08.132Z,98179.17
2023-01-08T06:49:34.551Z,98177.65
2023-01-08T06:52:01.030Z,98180.89
2023-01-08T06:54:27.498Z,98181.55
2023-01-08T06:56:54.590Z,98179.67
2023-01-08T06:59:22.011Z,98183.25
2023-01-08T07:01:49.240Z,98188.00
2023-01-08T07:04:16.012Z,98190.67
2023-01-08T07:06:42.432Z,98195.63
2023-01-08T07:09:13.219Z,98184.73
2023-01-08T07:11:41.127Z,98180.36
2023-01-08T07:14:07.571Z,98171.80
2023-01-08T07:16:34.158Z,98165.80
2023-01-08T07:19:00.637Z,98161.83
2023-01-08T07:21:27.189Z,98159.36
2023-01-08T07:23:53.625Z,98161.50
2023-01-08T07:26:20.261Z,98161.59
2023-01-08T07:28:46.801Z,98163.19
2023-01-08T07:31:13.338Z,98158.31
2023-01-08T07:33:40.090Z,98158.37
2023-01-08T07:36:07.356Z,98157.91
2023-01-08T07:38:33.883Z,98152.65
2023-01-08T07:41:00.428Z,98153.86
2023-01-08T07:43:26.997Z,98156.58
2023-01-08T07:45:53.395Z,98157.31
2023-01-08T07:48:56.834Z,98151.52
2023-01-08T07:51:23.458Z,98150.72
2023-01-08T07:53:49.896Z,98148.34
2023-01-08T07:56:16.535Z,98149.14
2023-01-08T07:58:42.960Z,98149.08
2023-01-08T08:01:11.249Z,98151.83
2023-01-08T08:03:38.950Z,98144.86
2023-01-08T08:06:06.069Z,98139.42
2023-01-08T08:08:32.497Z,98135.39
2023-01-08T08:10:59.016Z,98130.09
2023-01-08T08:13:26.015Z,98130.34
2023-01-08T08:15:52.823Z,98130.58
2023-01-08T08:18:19.516Z,98129.23
2023-01-08T08:20:46.044Z,98119.54
2023-01-08T08:23:14.844Z,98113.32
2023-01-08T08:25:42.934Z,98112.48
2023-01-08T08:28:11.397Z,98110.64
2023-01-08T08:30:42.100Z,98102.58
2023-01-08T08:33:10.106Z,98100.89
2023-01-08T08:35:37.373Z,98097.88
2023-01-08T08:38:04.833Z,98092.96
2023-01-08T08:40:31.477Z,98088.50
2023-01-08T08:43:00.322Z,98076.17
2023-01-08T08:45:27.633Z,98060.55
2023-01-08T08:47:54.483Z,98059.80
2023-01-08T08:50:22.178Z,98051.63
2023-01-08T08:52:48.683Z,98047.27
2023-01-08T08:55:16.013Z,98047.12
2023-01-08T08:57:43.501Z,98045.50
2023-01-08T09:00:11.283Z,98044.36
2023-01-08T09:02:37.914Z,98041.13
2023-01-08T09:05:05.770Z,98031.69
2023-01-08T09:07:32.633Z,98029.64
2023-01-08T09:09:59.280Z,98029.92
2023-01-08T09:12:25.754Z,98029.05
2023-01-08T09:14:52.368Z,98021.37
2023-01-08T09:17:19.003Z,98020.18
2023-01-08T09:19:45.429Z,98018.27
2023-01-08T09:22:11.852Z,98013.71
2023-01-08T09:24:38.564Z,98006.30
2023-01-08T09:27:05.048Z,98001.20
2023-01-08T09:29:31.431Z,97995.31
2023-01-08T09:31:57.971Z,97992.72
2023-01-08T09:34:24.446Z,97986.63
2023-01-08T09:36:50.932Z,97980.79
2023-01-08T09:39:17.389Z,97979.52
2023-01-08T09:41:47.091Z,97976.80
2023-01-08T09:44:23.881Z,97970.98
2023-01-08T09:46:50.870Z,97963.35
2023-01-08T09:49:25.094Z,97954.77
2023-01-08T09:51:52.246Z,97953.81
2023-01-08T09:54:19.297Z,97946.30
2023-01-08T09:56:45.898Z,97944.20
2023-01-08T09:59:18.246Z,97934.06
2023-01-08T10:01:45.938Z,97928.05
2023-01-08T10:04:24.395Z,97925.19
2023-01-08T10:07:11.829Z,97917.70
2023-01-08T10:09:40.345Z,97910.46
2023-01-08T10:12:07.602Z,97907.87
2023-01-08T10:14:37.866Z,97906.61
2023-01-08T10:17:20.857Z,97907.58
2023-01-08T10:19:47.398Z,97900.59
2023-01-08T10:22:17.510Z,97900.63
2023-01-08T10:24:44.501Z,97904.00
2023-01-08T10:27:16.753Z,97900.16
2023-01-08T10:29:44.014Z,97897.37
2023-01-08T10:32:29.134Z,97894.21
2023-01-08T10:35:02.799Z,97892.36
2023-01-08T10:37:33.015Z,97888.12
2023-01-08T10:40:17.489Z,97881.29
2023-01-08T10:42:44.187Z,97880.23
2023-01-08T10:45:21.917Z,97882.92
2023-01-08T10:47:52.970Z,97884.66
2023-01-08T10:50:22.584Z,97879.92
2023-01-08T10:52:57.239Z,97877.77
2023-01-08T10:55:29.690Z,97881.25
2023-01-08T10:58:03.848Z,97878.09
2023-01-08T11:00:33.743Z,97868.09
2023-01-08T11:03:06.979Z,97868.73
2023-01-08T11:05:40.955Z,97871.17
2023-01-08T11:08:16.016Z,97861.80
2023-01-08T11:10:42.544Z,97858.27
2023-01-08T11:13:19.689Z,97847.61
2023-01-08T11:15:47.148Z,97843.62
2023-01-08T11:18:13.624Z,97838.23
2023-01-08T11:20:40.576Z,97835.31
2023-01-08T11:23:19.098Z,97834.77
2023-01-08T11:25:51.839Z,97831.98
2023-01-08T11:28:29.791Z,97828.94
2023-01-08T11:31:10.186Z,97823.27
2023-01-08T11:33:39.877Z,97818.23
2023-01-08T11:36:20.773Z,97818.98
2023-01-08T11:38:47.492Z,97812.84
2023-01-08T11:41:22.347Z,97811.13
2023-01-08T11:44:09.547Z,97807.84
2023-01-08T11:46:49.497Z,97799.25
2023-01-08T11:49:53.725Z,97794.56
2023-01-08T11:52:34.362Z,97790.95
2023-01-08T11:55:30.143Z,97784.08
2023-01-08T11:58:10.404Z,97788.70
2023-01-08T12:01:09.745Z,97782.29
2023-01-08T12:03:47.227Z,97780.17
2023-01-08T12:06:28.469Z,97773.77
2023-01-08T12:09:10.252Z,97765.02
2023-01-08T12:11:57.607Z,97769.79
2023-01-08T12:14:57.038Z,97761.02
2023-01-08T12:17:41.169Z,97749.20
2023-01-08T12:20:24.805Z,97754.06
2023-01-08T12:23:28.545Z,97740.71
2023-01-08T12:26:09.203Z,97740.05
2023-01-08T12:28:44.571Z,97737.34
2023-01-08T12:31:37.135Z,97738.42
2023-01-08T12:34:11.088Z,97731.86
2023-01-08T12:36:42.693Z,97720.52
2023-01-08T12:39:14.016Z,97724.90
2023-01-08T12:41:43.900Z,97720.45
2023-01-08T12:44:11.807Z,97718.31
2023-01-08T12:46:43.886Z,97708.41
2023-01-08T12:49:14.308Z,97704.79
2023-01-08T12:51:54.510Z,97702.67
2023-01-08T12:54:31.537Z,97695.35
2023-01-08T12:57:14.501Z,97696.10
2023-01-08T13:00:14.672Z,97685.89
2023-01-08T13:03:01.484Z,97676.91
2023-01-08T13:05:27.923Z,97674.33
2023-01-08T13:07:57.575Z,97676.33
2023-01-08T13:10:30.056Z,97677.19
2023-01-08T13:12:56.858Z,97671.98
2023-01-08T13:15:26.336Z,97668.41
2023-01-08T13:17:55.932Z,97665.48
2023-01-08T13:20:28.303Z,97665.73
2023-01-08T13:22:58.286Z,97668.80
2023-01-08T13:25:24.637Z,97666.50
2023-01-08T13:27:51.811Z,97665.13
2023-01-08T13:30:37.337Z,97666.50
2023-01-08T13:33:23.321Z,97668.11
2023-01-08T13:35:50.446Z,97669.83
2023-01-08T13:38:19.558Z,97666.83
2023-01-08T13:40:48.159Z,97661.29
2023-01-08T13:43:19.225Z,97659.28
2023-01-08T13:46:19.038Z,97654.38
2023-01-08T13:49:08.373Z,97648.27
2023-01-08T13:51:43.747Z,97658.09
2023-01-08T13:54:13.040Z,97660.59
2023-01-08T13:56:46.448Z,97660.13
2023-01-08T13:59:31.590Z,97664.73
2023-01-08T14:01:58.934Z,97662.59
2023-01-08T14:04:25.595Z,97661.07
2023-01-08T14:06:52.237Z,97663.01
2023-01-08T14:09:24.335Z,97659.86
2023-01-08T14:11:54.543Z,97662.65
2023-01-08T14:14:22.600Z,97667.23
2023-01-08T14:16:51.711Z,97666.13
2023-01-08T14:19:21.395Z,97665.10
2023-01-08T14:21:50.437Z,97670.65
2023-01-08T14:24:18.942Z,97669.80
2023-01-08T14:26:55.674Z,97675.99
2023-01-08T14:29:24.533Z,97674.92
2023-01-08T14:31:53.814Z,97678.15
2023-01-08T14:34:23.519Z,97676.55
2023-01-08T14:36:54.017Z,97673.57
2023-01-08T14:39:36.903Z,97673.38
2023-01-08T14:42:35.739Z,97674.44
2023-01-08T14:45:06.937Z,97675.84
2023-01-08T14:47:38.953Z,97680.71
2023-01-08T14:50:06.732Z,97675.14
2023-01-08T14:52:35.457Z,97673.90
2023-01-08T14:55:03.718Z,97669.23
2023-01-08T14:57:30.765Z,97666.93
2023-01-08T14:59:59.935Z,97666.06
2023-01-08T15:02:33.864Z,97671.90
2023-01-08T15:05:14.657Z,97669.78
2023-01-08T15:08:23.359Z,97673.15
2023-01-08T15:11:02.526Z,97662.48
2023-01-08T15:13:35.516Z,97663.94
2023-01-08T15:16:08.381Z,97662.77
2023-01-08T15:19:07.814Z,97656.13
2023-01-08T15:21:35.290Z,97657.16
2023-01-08T15:24:03.937Z,97651.35
2023-01-08T15:26:31.337Z,97652.42
2023-01-08T15:29:05.140Z,97653.17
2023-01-08T15:31:45.027Z,97648.35
2023-01-08T15:34:11.764Z,97652.70
2023-01-08T15:36:38.576Z,97646.30
2023-01-08T15:39:05.832Z,97650.00
2023-01-08T15:41:40.190Z,97647.64
2023-01-08T15:44:08.326Z,97649.25
2023-01-08T15:46:35.484Z,97654.21
2023-01-08T15:49:03.637Z,97650.64
2023-01-08T15:51:33.394Z,97654.91
2023-01-08T15:54:01.098Z,97652.34
2023-01-08T15:56:27.787Z,97649.30
2023-01-08T15:58:54.299Z,97653.17
2023-01-08T16:01:20.784Z,97648.76
2023-01-08T16:03:48.941Z,97650.30
2023-01-08T16:06:15.479Z,97648.89
2023-01-08T16:08:42.018Z,97655.52
2023-01-08T16:11:08.476Z,97654.24
2023-01-08T16:13:35.001Z,97654.96
2023-01-08T16:16:07.094Z,97651.77
2023-01-08T16:18:33.782Z,97658.44
2023-01-08T16:21:03.922Z,97666.16
2023-01-08T16:23:31.290Z,97667.38
2023-01-08T16:25:57.824Z,97662.20
2023-01-08T16:28:24.469Z,97656.17
2023-01-08T16:30:51.192Z,97654.75
2023-01-08T16:33:17.703Z,97653.65
2023-01-08T16:35:44.135Z,97646.78
2023-01-08T16:38:13.086Z,97640.92
2023-01-08T16:40:39.648Z,97639.30
2023-01-08T16:43:06.224Z,97635.48
2023-01-08T16:45:32.790Z,97629.27
2023-01-08T16:47:59.306Z,97629.61
2023-01-08T16:50:25.888Z,97626.02
2023-01-08T16:52:52.432Z,97619.73
2023-01-08T16:55:18.971Z,97626.02
2023-01-08T16:57:45.558Z,97625.23
2023-01-08T17:00:12.750Z,97624.08
2023-01-08T17:02:39.408Z,97623.40
2023-01-08T17:05:06.772Z,97624.06
2023-01-08T17:07:33.415Z,97619.45
2023-01-08T17:09:59.968Z,97609.31
2023-01-08T17:12:26.424Z,97612.98
2023-01-08T17:14:53.242Z,97609.27
2023-01-08T17:17:19.874Z,97605.85
2023-01-08T17:19:46.711Z,97592.75
2023-01-08T17:22:13.239Z,97587.33
2023-01-08T17:24:39.786Z,97587.30
2023-01-08T17:27:06.246Z,97589.52
2023-01-08T17:29:32.787Z,97597.48
2023-01-08T17:31:59.224Z,97595.91
2023-01-08T17:34:25.759Z,97596.91
2023-01-08T17:36:52.182Z,97595.64
2023-01-08T17:39:18.885Z,97594.11
2023-01-08T17:41:45.384Z,97591.91
2023-01-08T17:44:12.949Z,97591.34
2023-01-08T17:46:42.365Z,97590.37
2023-01-08T17:49:10.535Z,97581.09
2023-01-08T17:51:37.081Z,97589.63
2023-01-08T17:54:04.041Z,97587.14
2023-01-08T17:56:30.666Z,97591.17
2023-01-08T17:58:57.306Z,97595.27
2023-01-08T18:01:23.992Z,97599.13
2023-01-08T18:03:50.703Z,97595.62
2023-01-08T18:06:17.331Z,97598.83
2023-01-08T18:08:43.992Z,97600.25
2023-01-08T18:11:11.126Z,97600.13
2023-01-08T18:13:38.070Z,97597.13
2023-01-08T18:16:12.645Z,97595.01
2023-01-08T18:18:40.153Z,97589.19
2023-01-08T18:21:07.527Z,97584.02
2023-01-08T18:23:34.167Z,97577.75
2023-01-08T18:26:09.497Z,97577.13
2023-01-08T18:28:37.478Z,97575.06
2023-01-08T18:31:08.913Z,97576.25
2023-01-08T18:33:37.057Z,97578.54
2023-01-08T18:36:06.913Z,97585.72
2023-01-08T18:38:33.677Z,97582.04
2023-01-08T18:41:00.419Z,97581.77
2023-01-08T18:43:27.268Z,97583.89
2023-01-08T18:46:04.914Z,97587.85
2023-01-08T18:48:32.351Z,97590.95
2023-01-08T18:50:59.176Z,97598.35
2023-01-08T18:53:25.821Z,97596.19
2023-01-08T18:55:52.458Z,97594.73
2023-01-08T18:58:19.104Z,97595.48
2023-01-08T19:00:46.421Z,97598.52
2023-01-08T19:03:12.900Z,97603.94
2023-01-08T19:05:42.682Z,97609.19
2023-01-08T19:08:10.221Z,97608.04
2023-01-08T19:10:37.941Z,97612.93
2023-01-08T19:13:06.023Z,97615.49
2023-01-08T19:15:33.481Z,97618.48
2023-01-08T19:18:00.177Z,97619.31
2023-01-08T19:20:27.922Z,97621.95
2023-01-08T19:22:54.844Z,97621.42
2023-01-08T19:25:21.886Z,97620.16
2023-01-08T19:27:48.631Z,97625.46
2023-01-08T19:30:15.686Z,97620.64
2023-01-08T19:32:42.164Z,97617.36
2023-01-08T19:35:09.161Z,97615.45
2023-01-08T19:37:35.837Z,97609.47
2023-01-08T19:40:02.557Z,97601.84
2023-01-08T19:42:29.167Z,97604.65
2023-01-08T19:44:57.179Z,97602.71
2023-01-08T19:47:24.137Z,97596.55
2023-01-08T19:49:50.768Z,97595.73
2023-01-08T19:52:18.226Z,97596.46
2023-01-08T19:54:45.792Z,97592.25
2023-01-08T19:57:12.310Z,97590.89
2023-01-08T19:59:42.049Z,97590.38
2023-01-08T20:02:10.453Z,97594.04
2023-01-08T20:04:37.762Z,97596.01
2023-01-08T20:07:04.430Z,97593.52
2023-01-08T20:09:30.965Z,97593.08
2023-01-08T20:11:57.641Z,97591.40
2023-01-08T20:14:24.117Z,97587.08
2023-01-08T20:16:50.885Z,97585.05
2023-01-08T20:19:17.390Z,97582.98
2023-01-08T20:21:43.964Z,97582.53
2023-01-08T20:24:12.777Z,97579.85
2023-01-08T20:26:40.627Z,97576.84
2023-01-08T20:29:07.483Z,97563.50
2023-01-08T20:31:34.675Z,97560.84
2023-01-08T20:34:04.022Z,97555.23
2023-01-08T20:36:32.827Z,97556.20
2023-01-08T20:39:02.378Z,97549.39
2023-01-08T20:41:29.063Z,97545.88
2023-01-08T20:43:55.916Z,97543.94
2023-01-08T20:46:24.952Z,97539.10
2023-01-08T20:48:51.583Z,97547.05
2023-01-08T20:51:18.127Z,97544.34
2023-01-08T20:53:44.580Z,97542.61
2023-01-08T20:56:15.115Z,97535.41
2023-01-08T20:58:46.708Z,97536.17
2023-01-08T21:01:14.782Z,97540.14
2023-01-08T21:03:42.723Z,97535.94
2023-01-08T21:06:17.960Z,97536.58
2023-01-08T21:08:47.362Z,97531.39
2023-01-08T21:11:14.613Z,97525.11
2023-01-08T21:13:42.284Z,97518.73
2023-01-08T21:16:13.342Z,97510.26
2023-01-08T21:18:40.569Z,97505.59
2023-01-08T21:21:07.428Z,97497.73
2023-01-08T21:23:34.306Z,97481.15
2023-01-08T21:26:06.768Z,97476.77
2023-01-08T21:28:33.401Z,97469.93
2023-01-08T21:31:10.410Z,97463.15
2023-01-08T21:33:37.744Z,97464.23
2023-01-08T21:36:06.589Z,97461.65
2023-01-08T21:38:33.667Z,97464.80
2023-01-08T21:41:01.837Z,97470.91
2023-01-08T21:43:28.691Z,97471.61
2023-01-08T21:46:00.975Z,97470.92
2023-01-08T21:48:28.951Z,97463.48
2023-01-08T21:50:55.491Z,97460.92
2023-01-08T21:53:21.907Z,97454.87
2023-01-08T21:55:48.438Z,97454.45
2023-01-08T21:58:14.912Z,97454.84
2023-01-08T22:00:41.410Z,97454.83
2023-01-08T22:03:08.039Z,97454.10
2023-01-08T22:05:34.631Z,97446.67
2023-01-08T22:08:01.054Z,97445.84
2023-01-08T22:10:29.050Z,97439.17
2023-01-08T22:12:55.590Z,97432.10
2023-01-08T22:15:22.032Z,97430.19
2023-01-08T22:17:48.574Z,97433.69
2023-01-08T22:20:15.356Z,97428.66
2023-01-08T22:22:41.795Z,97420.05
2023-01-08T22:25:08.727Z,97409.64
2023-01-08T22:27:35.245Z,97406.75
2023-01-08T22:30:01.814Z,97409.76
2023-01-08T22:32:28.322Z,97419.09
2023-01-08T22:34:54.866Z,97418.20
2023-01-08T22:37:21.298Z,97420.70
2023-01-08T22:39:48.820Z,97419.55
2023-01-08T22:42:16.930Z,97421.24
2023-01-08T22:44:43.384Z,97413.45
2023-01-08T22:47:10.234Z,97408.71
2023-01-08T22:49:37.852Z,97408.80
2023-01-08T22:52:04.523Z,97405.31
2023-01-08T22:54:30.975Z,97393.75
2023-01-08T22:56:57.367Z,97394.16
2023-01-08T22:59:23.859Z,97384.73
2023-01-08T23:01:50.341Z,97382.16
2023-01-08T23:04:16.853Z,97374.96
2023-01-08T23:06:43.493Z,97375.40
2023-01-08T23:09:10.118Z,97370.52
2023-01-08T23:11:36.763Z,97365.64
2023-01-08T23:14:03.402Z,97358.77
2023-01-08T23:16:30.244Z,97356.60
2023-01-08T23:18:57.134Z,97353.62
2023-01-08T23:21:25.640Z,97355.66
2023-01-08T23:23:52.934Z,97358.38
2023-01-08T23:26:28.810Z,97363.31
2023-01-08T23:28:57.075Z,97359.45
2023-01-08T23:31:26.773Z,97355.55
2023-01-08T23:33:54.141Z,97350.68
2023-01-08T23:36:21.578Z,97343.77
2023-01-08T23:38:50.804Z,97342.45
2023-01-08T23:41:18.372Z,97336.44
2023-01-08T23:43:45.225Z,97335.58
2023-01-08T23:46:12.607Z,97328.73
2023-01-08T23:48:39.130Z,97323.48
2023-01-08T23:51:05.884Z,97315.98
2023-01-08T23:53:32.308Z,97308.83
2023-01-08T23:55:59.362Z,97301.49
2023-01-08T23:58:25.907Z,97296.73
